createdAt,value
2022-08-26T00:08:27.312Z,100166.53
2022-08-26T00:11:30.187Z,100149.59
2022-08-26T00:14:34.861Z,100153.41
2022-08-26T00:17:41.358Z,100142.94
2022-08-26T00:20:48.185Z,100162.75
2022-08-26T00:23:49.644Z,100134.50
2022-08-26T00:26:52.362Z,100166.88
2022-08-26T00:29:58.043Z,100156.66
2022-08-26T00:33:40.142Z,100168.06
2022-08-26T00:37:34.313Z,100157.56
2022-08-26T00:41:15.218Z,100149.78
2022-08-26T00:48:01.340Z,100164.97
2022-08-26T00:51:29.783Z,100155.78
2022-08-26T00:55:03.974Z,100150.97
2022-08-26T00:58:46.487Z,100158.00
2022-08-26T01:02:25.339Z,100162.56
2022-08-26T01:05:47.371Z,100138.13
2022-08-26T01:17:49.623Z,100148.53
2022-08-26T01:21:36.778Z,100153.53
2022-08-26T01:25:16.507Z,100155.50
2022-08-26T01:41:55.311Z,100136.59
2022-08-26T01:45:22.998Z,100142.53
2022-08-26T01:48:45.767Z,100156.09
2022-08-26T01:52:11.935Z,100151.19
2022-08-26T01:55:36.950Z,100154.00
2022-08-26T01:58:42.766Z,100149.44
2022-08-26T02:01:44.622Z,100154.50
2022-08-26T02:04:52.524Z,100149.97
2022-08-26T02:07:54.402Z,100156.00
2022-08-26T02:10:55.866Z,100157.84
2022-08-26T02:14:03.725Z,100151.09
2022-08-26T02:17:05.501Z,100160.34
2022-08-26T02:20:13.348Z,100138.94
2022-08-26T02:23:53.572Z,100140.31
2022-08-26T02:27:21.325Z,100155.81
2022-08-26T02:34:31.368Z,100155.69
2022-08-26T02:37:53.322Z,100152.59
2022-08-26T02:41:15.483Z,100135.22
2022-08-26T02:44:55.882Z,100150.75
2022-08-26T02:47:57.385Z,100149.28
2022-08-26T02:51:01.210Z,100139.16
2022-08-26T02:54:02.941Z,100156.66
2022-08-26T03:07:44.483Z,100162.53
2022-08-26T03:11:06.484Z,100136.91
2022-08-26T03:14:28.150Z,100135.41
2022-08-26T03:17:51.988Z,100161.88
2022-08-26T03:21:16.800Z,100133.06
2022-08-26T03:24:39.847Z,100133.91
2022-08-26T03:28:02.110Z,100145.50
2022-08-26T03:31:24.765Z,100145.37
2022-08-26T03:39:28.471Z,100144.41
2022-08-26T03:46:35.928Z,100142.44
2022-08-26T03:50:07.371Z,100142.22
2022-08-26T03:57:29.672Z,100144.91
2022-08-26T04:01:13.904Z,100140.12
2022-08-26T04:05:27.497Z,100143.06
2022-08-26T04:12:47.766Z,100143.06
2022-08-26T04:16:02.434Z,100138.25
2022-08-26T04:26:59.626Z,100140.00
2022-08-26T04:30:13.963Z,100143.94
2022-08-26T04:41:15.263Z,100148.91
2022-08-26T04:44:06.940Z,100150.38
2022-08-26T04:45:30.813Z,100080.91
2022-08-26T04:48:46.117Z,100140.78
2022-08-26T04:52:46.044Z,100137.31
2022-08-26T05:03:07.538Z,100150.31
2022-08-26T05:07:09.736Z,100142.19
2022-08-26T05:17:46.894Z,100149.81
2022-08-26T05:20:56.178Z,100147.28
2022-08-26T05:28:07.652Z,100143.00
2022-08-26T05:32:00.645Z,100143.94
2022-08-26T05:35:13.674Z,100122.56
2022-08-26T05:39:02.344Z,100150.94
2022-08-26T06:49:58.796Z,100161.63
2022-08-26T06:53:50.920Z,100159.84
2022-08-26T07:00:48.842Z,100160.72
2022-08-26T07:03:52.912Z,100157.78
2022-08-26T07:06:56.411Z,100154.41
2022-08-26T07:10:07.124Z,100154.91
2022-08-26T07:13:11.198Z,100157.41
2022-08-26T07:16:16.952Z,100151.66
2022-08-26T07:19:29.939Z,100156.78
2022-08-26T07:22:33.020Z,100158.66
2022-08-26T07:25:43.515Z,100169.91
2022-08-26T07:48:55.089Z,100148.59
2022-08-26T07:52:04.759Z,100144.97
2022-08-26T07:55:11.804Z,100157.84
2022-08-26T08:02:39.886Z,100122.91
2022-08-26T08:06:44.800Z,100140.53
2022-08-26T08:17:02.326Z,100143.09
2022-08-26T08:20:27.977Z,100135.75
2022-08-26T08:23:35.385Z,100138.19
2022-08-26T08:27:00.899Z,100128.09
2022-08-26T08:30:10.001Z,100133.03
2022-08-26T08:33:18.571Z,100126.13
2022-08-26T08:40:45.743Z,100122.91
2022-08-26T08:43:53.758Z,100088.28
2022-08-26T08:50:47.336Z,100050.53
2022-08-26T08:53:54.635Z,100116.94
2022-08-26T08:57:11.629Z,100113.53
2022-08-26T09:00:17.796Z,100055.28
2022-08-26T09:04:01.142Z,100115.88
2022-08-26T09:07:13.757Z,100105.13
2022-08-26T09:10:36.151Z,100091.41
2022-08-26T09:13:39.727Z,100113.03
2022-08-26T09:17:06.485Z,100064.00
2022-08-26T09:20:38.414Z,100040.09
2022-08-26T09:23:49.469Z,100094.72
2022-08-26T09:26:51.438Z,100051.53
2022-08-26T09:30:01.297Z,100089.88
2022-08-26T09:33:15.977Z,100096.03
2022-08-26T09:36:41.418Z,100092.00
2022-08-26T09:39:43.215Z,100086.75
2022-08-26T09:46:55.846Z,100081.13
2022-08-26T09:54:30.467Z,100086.22
2022-08-26T09:58:08.711Z,100083.28
2022-08-26T10:01:30.481Z,100026.56
2022-08-26T10:08:47.696Z,100063.19
2022-08-26T10:16:49.876Z,100071.44
2022-08-26T10:20:26.569Z,100010.75
2022-08-26T10:28:29.740Z,100070.66
2022-08-26T10:36:34.074Z,100049.00
2022-08-26T10:40:32.815Z,99999.50
2022-08-26T10:48:43.266Z,100037.19
2022-08-26T10:52:12.331Z,100044.97
2022-08-26T10:59:57.263Z,100027.44
2022-08-26T11:07:24.454Z,100032.03
2022-08-26T11:11:01.851Z,99960.53
2022-08-26T11:18:54.954Z,100014.94
2022-08-26T11:56:35.875Z,99973.47
2022-08-26T11:59:41.663Z,99966.91
2022-08-26T12:03:18.389Z,99962.63
2022-08-26T12:06:47.934Z,99951.44
2022-08-26T12:09:57.164Z,99944.22
2022-08-26T12:13:00.946Z,99952.84
2022-08-26T12:16:06.322Z,99951.94
2022-08-26T12:19:23.992Z,99949.38
2022-08-26T12:22:29.765Z,99939.53
2022-08-26T12:25:32.932Z,99927.63
2022-08-26T12:28:44.452Z,99927.47
2022-08-26T12:38:53.718Z,99917.09
2022-08-26T12:42:55.748Z,99910.47
2022-08-26T12:58:40.894Z,99906.78
2022-08-26T13:02:14.568Z,99756.13
2022-08-26T13:05:41.115Z,99768.06
2022-08-26T13:21:37.730Z,99810.81
2022-08-26T13:24:44.174Z,99732.00
2022-08-26T13:27:46.218Z,99857.69
2022-08-26T14:22:32.803Z,99690.06
2022-08-26T14:34:06.038Z,99835.97
2022-08-26T16:05:27.381Z,99793.78
2022-08-26T16:08:36.528Z,99738.00
2022-08-26T16:11:41.213Z,99755.88
2022-08-26T16:15:05.117Z,99788.41
2022-08-26T16:18:23.569Z,99785.75
2022-08-26T16:41:57.475Z,99797.22
2022-08-26T16:45:18.476Z,99804.88
2022-08-26T17:38:46.392Z,99794.38
2022-08-26T17:41:49.870Z,99802.78
2022-08-26T17:44:51.368Z,99793.47
2022-08-26T17:47:55.494Z,99793.13
2022-08-26T17:51:18.733Z,99782.59
2022-08-26T17:54:40.149Z,99795.13
2022-08-26T17:57:42.306Z,99792.03
2022-08-26T18:00:46.652Z,99798.88
2022-08-26T18:04:08.520Z,99796.84
2022-08-26T18:07:52.321Z,99783.69
2022-08-26T18:11:33.918Z,99812.53
2022-08-26T18:14:55.637Z,99777.91
2022-08-26T18:17:58.439Z,99812.06
2022-08-26T18:21:01.557Z,99804.19
2022-08-26T18:24:04.220Z,99806.94
2022-08-26T18:27:06.144Z,99807.12
2022-08-26T18:30:29.233Z,99809.72
2022-08-26T18:34:05.343Z,99795.19
2022-08-26T19:01:03.915Z,99818.56
2022-08-26T19:04:46.108Z,99821.31
2022-08-26T19:08:27.753Z,99809.34
2022-08-26T19:11:50.423Z,99813.25
2022-08-26T19:15:12.812Z,99816.97
2022-08-26T19:18:15.119Z,99831.88
2022-08-26T19:21:16.618Z,99830.84
2022-08-26T19:24:19.007Z,99839.34
2022-08-26T19:27:20.464Z,99829.38
2022-08-26T19:30:22.462Z,99831.97
2022-08-26T19:33:25.271Z,99832.13
2022-08-26T19:36:28.376Z,99815.84
2022-08-26T19:39:30.123Z,99840.63
2022-08-26T19:42:52.463Z,99827.31
2022-08-26T19:46:18.283Z,99828.63
2022-08-26T19:49:59.572Z,99843.47
2022-08-26T19:53:03.448Z,99842.22
2022-08-26T19:56:04.999Z,99841.19
2022-08-26T19:59:06.443Z,99851.44
2022-08-26T20:02:11.165Z,99857.97
2022-08-26T20:05:14.494Z,99854.88
2022-08-26T20:08:20.465Z,99787.72
2022-08-26T20:11:24.515Z,99860.94
2022-08-26T20:28:39.288Z,99863.22
2022-08-26T20:32:00.986Z,99867.78
2022-08-26T20:35:23.538Z,99882.97
2022-08-26T20:38:44.956Z,99882.06
2022-08-26T20:41:47.852Z,99883.88
2022-08-26T20:44:54.262Z,99893.72
2022-08-26T20:47:56.553Z,99888.38
2022-08-26T20:54:37.810Z,99888.97
2022-08-26T20:58:20.857Z,99887.66
2022-08-26T21:01:44.893Z,99873.16
2022-08-26T21:05:06.963Z,99881.59
2022-08-26T21:08:09.306Z,99894.84
2022-08-26T21:11:13.247Z,99867.56
2022-08-26T21:14:16.835Z,99909.13
2022-08-26T21:17:18.767Z,99913.03
2022-08-26T21:20:20.368Z,99895.81
2022-08-26T21:23:23.136Z,99902.91
2022-08-26T21:26:29.791Z,99910.25
2022-08-26T21:29:32.323Z,99909.28
2022-08-26T21:32:54.773Z,99906.09
2022-08-26T21:36:36.164Z,99903.63
2022-08-26T21:39:59.324Z,99904.34
2022-08-26T21:43:25.939Z,99909.16
2022-08-26T21:46:57.050Z,99915.78
2022-08-26T21:50:18.535Z,99902.97
2022-08-26T21:53:20.885Z,99908.75
2022-08-26T21:56:24.474Z,99908.94
2022-08-26T21:59:46.155Z,99900.28
2022-08-26T22:02:47.583Z,99896.75
2022-08-26T22:05:49.124Z,99913.81
2022-08-26T22:09:31.206Z,99899.84
2022-08-26T22:13:12.867Z,99905.50
2022-08-26T22:16:37.954Z,99897.69
2022-08-26T22:19:59.501Z,99910.44
2022-08-26T22:23:22.236Z,99906.19
2022-08-26T22:26:52.697Z,99914.97
2022-08-26T22:30:15.117Z,99906.81
2022-08-26T22:33:17.146Z,99898.53
2022-08-26T22:36:23.134Z,99891.81
2022-08-26T22:46:48.045Z,99891.84
2022-08-26T22:50:10.145Z,99890.97
2022-08-26T22:53:32.737Z,99860.28
2022-08-26T22:56:57.603Z,99884.94
2022-08-26T22:59:59.095Z,99891.34
2022-08-26T23:03:01.994Z,99889.03
2022-08-26T23:06:06.192Z,99895.81
2022-08-26T23:09:08.247Z,99897.22
2022-08-26T23:12:10.125Z,99887.03
2022-08-26T23:15:12.191Z,99894.63
2022-08-26T23:30:43.555Z,99886.87
2022-08-26T23:33:45.030Z,99881.75
2022-08-26T23:36:46.995Z,99868.28
2022-08-26T23:44:45.655Z,99815.59
2022-08-26T23:47:47.961Z,99847.59
2022-08-26T23:50:49.682Z,99869.72
2022-08-26T23:53:51.337Z,99852.97
